createdAt,value
2017-03-23T00:00:58.214Z,7.04
2017-03-23T00:01:58.253Z,6.94
2017-03-23T00:02:58.854Z,7
2017-03-23T00:03:58.878Z,7.01
2017-03-23T00:04:58.878Z,6.94
2017-03-23T00:05:59.382Z,7.11
2017-03-23T00:07:00.165Z,7.03
2017-03-23T00:08:00.230Z,7.03
2017-03-23T00:09:00.282Z,7.11
2017-03-23T00:10:00.261Z,6.98
2017-03-23T00:11:00.113Z,7.11
2017-03-23T00:12:00.149Z,7.05
2017-03-23T00:13:00.635Z,7.01
2017-03-23T00:14:01.124Z,7.01
2017-03-23T00:15:01.666Z,7
2017-03-23T00:16:01.847Z,7.09
2017-03-23T00:17:01.845Z,7.03
2017-03-23T00:18:01.932Z,7.03
2017-03-23T00:19:01.989Z,7.03
2017-03-23T00:20:01.788Z,7
2017-03-23T00:21:01.816Z,7
2017-03-23T00:22:01.857Z,7.03
2017-03-23T00:23:02.383Z,6.97
2017-03-23T00:24:02.905Z,7
2017-03-23T00:25:02.896Z,7
2017-03-23T00:26:02.921Z,7.01
2017-03-23T00:27:03.637Z,7.05
2017-03-23T00:28:03.591Z,6.97
2017-03-23T00:29:03.701Z,7.03
2017-03-23T00:30:03.699Z,7
2017-03-23T00:31:03.572Z,6.97
2017-03-23T00:32:04.087Z,7.05
2017-03-23T00:33:04.608Z,7
2017-03-23T00:34:04.658Z,7
2017-03-23T00:35:05.181Z,6.97
2017-03-23T00:36:05.585Z,6.93
2017-03-23T00:37:05.310Z,7.01
2017-03-23T00:38:05.420Z,6.98
2017-03-23T00:39:05.471Z,6.98
2017-03-23T00:40:05.454Z,6.95
2017-03-23T00:41:05.301Z,7.04
2017-03-23T00:42:05.853Z,6.97
2017-03-23T00:43:05.888Z,7.09
2017-03-23T00:44:05.883Z,7
2017-03-23T00:45:05.939Z,7.03
2017-03-23T00:46:05.940Z,7
2017-03-23T00:47:06.585Z,7.05
2017-03-23T00:48:06.705Z,7.01
2017-03-23T00:49:06.854Z,7.05
2017-03-23T00:50:06.825Z,7.12
2017-03-23T00:51:06.705Z,7.12
2017-03-23T00:52:06.697Z,7.19
2017-03-23T00:53:07.215Z,7.19
2017-03-23T00:54:07.223Z,7.19
2017-03-23T00:55:07.764Z,7.15
2017-03-23T00:56:07.903Z,7.03
2017-03-23T00:57:07.960Z,7.11
2017-03-23T00:58:07.969Z,7.04
2017-03-23T00:59:08.056Z,7.01
2017-03-23T01:00:07.880Z,7.08
2017-03-23T01:01:07.889Z,6.95
2017-03-23T01:02:08.087Z,7.01
2017-03-23T01:03:08.158Z,7.08
2017-03-23T01:04:08.175Z,6.98
2017-03-23T01:05:08.031Z,7
2017-03-23T01:06:08.055Z,7.01
2017-03-23T01:07:08.056Z,7
2017-03-23T01:08:08.572Z,7.01
2017-03-23T01:09:08.609Z,7
2017-03-23T01:10:08.621Z,7.01
2017-03-23T01:11:08.616Z,6.94
2017-03-23T01:12:08.821Z,6.98
2017-03-23T01:13:08.842Z,7.04
2017-03-23T01:14:08.913Z,7.03
2017-03-23T01:15:08.942Z,6.94
2017-03-23T01:16:08.763Z,7.08
2017-03-23T01:17:08.820Z,7.01
2017-03-23T01:18:08.813Z,6.97
2017-03-23T01:19:08.860Z,7
2017-03-23T01:20:08.867Z,6.93
2017-03-23T01:21:08.930Z,6.97
2017-03-23T01:22:08.962Z,7
2017-03-23T01:23:09.171Z,7.01
2017-03-23T01:24:09.180Z,6.94
2017-03-23T01:25:09.243Z,7.01
2017-03-23T01:26:09.074Z,7
2017-03-23T01:27:09.070Z,6.97
2017-03-23T01:28:09.565Z,6.97
2017-03-23T01:29:10.123Z,7.01
2017-03-23T01:30:10.126Z,7.04
2017-03-23T01:31:10.634Z,7
2017-03-23T01:32:11.360Z,6.95
2017-03-23T01:33:11.417Z,6.95
2017-03-23T01:34:11.433Z,7.01
2017-03-23T01:35:11.395Z,6.97
2017-03-23T01:36:11.311Z,6.95
2017-03-23T01:37:11.333Z,7
2017-03-23T01:38:11.363Z,7
2017-03-23T01:39:11.412Z,7.01
2017-03-23T01:40:11.907Z,7.03
2017-03-23T01:41:11.923Z,7.03
2017-03-23T01:42:12.669Z,7.03
2017-03-23T01:43:12.809Z,7.03
2017-03-23T01:44:12.817Z,6.94
2017-03-23T01:45:12.843Z,7
2017-03-23T01:46:12.720Z,6.93
2017-03-23T01:47:13.206Z,6.88
2017-03-23T01:48:13.699Z,7
2017-03-23T01:49:14.228Z,7
2017-03-23T01:50:14.236Z,7.01
2017-03-23T01:51:14.730Z,7.05
2017-03-23T01:52:14.905Z,6.93
2017-03-23T01:53:14.940Z,7
2017-03-23T01:54:14.988Z,6.91
2017-03-23T01:55:15.191Z,6.91
2017-03-23T01:56:14.860Z,6.98
2017-03-23T01:57:15.425Z,6.91
2017-03-23T01:58:15.441Z,6.88
2017-03-23T01:59:15.486Z,6.9
2017-03-23T02:00:15.477Z,7.01
2017-03-23T02:01:16.271Z,7.03
2017-03-23T02:02:16.586Z,6.93
2017-03-23T02:03:16.308Z,6.97
2017-03-23T02:04:16.276Z,6.88
2017-03-23T02:05:16.538Z,6.86
2017-03-23T02:06:16.244Z,7.03
2017-03-23T02:07:16.273Z,7.03
2017-03-23T02:08:16.255Z,6.94
2017-03-23T02:09:16.807Z,6.91
2017-03-23T02:11:16.995Z,7
2017-03-23T02:12:17.041Z,6.9
2017-03-23T02:13:17.069Z,7.01
2017-03-23T02:15:08.979Z,6.98
2017-03-23T02:15:23.720Z,6.97
2017-03-23T02:40:49.661Z,7.03
2017-03-23T02:41:48.154Z,6.97
2017-03-23T02:42:46.085Z,6.98
2017-03-23T02:43:46.526Z,7
2017-03-23T02:44:47.005Z,6.95
2017-03-23T02:45:47.497Z,7.08
2017-03-23T02:46:47.940Z,6.91
2017-03-23T02:47:48.401Z,7.01
2017-03-23T02:48:48.871Z,6.95
2017-03-23T02:49:49.350Z,7.08
2017-03-23T02:51:12.708Z,7.03
2017-03-23T02:51:53.840Z,6.98
2017-03-23T02:52:53.279Z,6.98
2017-03-23T02:53:54.823Z,7.05
2017-03-23T02:55:16.724Z,7.01
2017-03-23T02:55:58.189Z,7.03
2017-03-23T02:56:58.606Z,6.97
2017-03-23T02:57:59.008Z,7.03
2017-03-23T02:58:59.405Z,7
2017-03-23T02:59:59.793Z,7.03
2017-03-23T03:01:00.191Z,6.98
2017-03-23T03:02:00.884Z,7.03
2017-03-23T03:03:00.917Z,6.98
2017-03-23T03:04:00.751Z,6.98
2017-03-23T03:05:01.142Z,6.95
2017-03-23T03:06:01.537Z,7.01
2017-03-23T03:07:01.905Z,6.88
2017-03-23T03:08:45.266Z,7.01
2017-03-23T03:09:26.561Z,7.05
2017-03-23T03:10:26.085Z,6.94
2017-03-23T03:24:02.748Z,6.94
2017-03-23T03:25:01.128Z,6.94
2017-03-23T03:26:01.146Z,6.94
2017-03-23T03:27:01.518Z,6.94
2017-03-23T03:28:01.905Z,6.93
2017-03-23T03:29:02.287Z,7.03
2017-03-23T03:30:02.668Z,7.04
2017-03-23T03:31:03.058Z,6.95
2017-03-23T03:32:03.440Z,6.88
2017-03-23T03:33:03.820Z,6.98
2017-03-23T03:34:04.224Z,7
2017-03-23T03:35:04.774Z,7.01
2017-03-23T03:36:04.643Z,7.04
2017-03-23T03:37:05.042Z,7
2017-03-23T03:38:05.627Z,6.93
2017-03-23T03:39:06.017Z,7.08
2017-03-23T03:40:06.610Z,7
2017-03-23T03:41:06.432Z,7.01
2017-03-23T03:42:06.827Z,7.08
2017-03-23T03:43:07.228Z,7.05
2017-03-23T03:44:07.629Z,7
2017-03-23T03:45:08.119Z,7.09
2017-03-23T03:46:08.516Z,6.9
2017-03-23T03:47:08.919Z,7.04
2017-03-23T03:48:09.303Z,6.91
2017-03-23T03:49:09.703Z,7
2017-03-23T03:50:10.242Z,6.97
2017-03-23T03:51:10.104Z,6.98
2017-03-23T03:52:10.498Z,6.97
2017-03-23T03:53:10.904Z,7
2017-03-23T03:54:11.295Z,6.95
2017-03-23T03:55:11.844Z,6.86
2017-03-23T03:56:11.708Z,6.95
2017-03-23T03:57:12.111Z,6.98
2017-03-23T03:58:12.503Z,7.03
2017-03-23T03:59:12.895Z,6.82
2017-03-23T04:00:13.393Z,6.86
2017-03-23T04:01:13.775Z,6.94
2017-03-23T04:02:14.202Z,6.9
2017-03-23T04:03:14.583Z,6.93
2017-03-23T04:04:14.983Z,6.93
2017-03-23T04:05:15.554Z,6.9
2017-03-23T04:06:15.411Z,6.85
2017-03-23T04:07:15.808Z,6.95
2017-03-23T04:08:16.191Z,6.88
2017-03-23T04:09:16.591Z,6.94
2017-03-23T04:10:17.128Z,6.91
2017-03-23T04:11:16.991Z,6.78
2017-03-23T04:12:17.397Z,6.82
2017-03-23T04:13:17.793Z,6.83
2017-03-23T04:14:18.182Z,6.86
2017-03-23T04:15:18.724Z,6.82
2017-03-23T04:16:18.586Z,6.83
2017-03-23T04:17:18.979Z,6.8
2017-03-23T04:18:19.380Z,6.8
2017-03-23T04:19:19.778Z,6.73
2017-03-23T04:20:20.469Z,6.7
2017-03-23T04:21:20.175Z,6.85
2017-03-23T04:22:20.561Z,6.85
2017-03-23T04:23:20.958Z,6.8
2017-03-23T04:24:21.362Z,6.82
2017-03-23T04:25:21.917Z,6.82
2017-03-23T04:26:21.780Z,6.86
2017-03-23T04:27:22.176Z,6.85
2017-03-23T04:28:22.570Z,6.75
2017-03-23T04:29:22.964Z,6.8
2017-03-23T04:30:23.464Z,6.82
2017-03-23T04:31:23.385Z,6.67
2017-03-23T04:32:23.791Z,6.78
2017-03-23T04:33:24.181Z,6.72
2017-03-23T04:34:24.580Z,6.73
2017-03-23T04:35:25.135Z,6.67
2017-03-23T04:36:24.999Z,6.7
2017-03-23T04:37:25.378Z,6.72
2017-03-23T04:38:25.785Z,6.7
2017-03-23T04:39:26.189Z,6.7
2017-03-23T04:40:26.595Z,6.72
2017-03-23T04:41:26.994Z,6.73
2017-03-23T04:42:27.390Z,6.67
2017-03-23T04:43:27.788Z,6.76
2017-03-23T04:44:28.189Z,6.72
2017-03-23T04:45:28.593Z,6.72
2017-03-23T04:46:28.992Z,6.79
2017-03-23T04:47:29.389Z,6.76
2017-03-23T04:48:29.790Z,6.73
2017-03-23T04:49:30.186Z,6.79
2017-03-23T04:50:30.559Z,6.73
2017-03-23T04:51:30.943Z,6.76
2017-03-23T04:52:31.319Z,6.76
2017-03-23T04:53:31.718Z,6.68
2017-03-23T04:54:32.158Z,6.62
2017-03-23T04:55:32.538Z,6.68
2017-03-23T04:56:32.942Z,6.73
2017-03-23T04:57:33.344Z,6.86
2017-03-23T04:58:33.753Z,6.75
2017-03-23T04:59:34.139Z,6.72
2017-03-23T05:00:34.585Z,6.67
2017-03-23T05:01:35.053Z,6.67
2017-03-23T05:02:35.513Z,6.75
2017-03-23T05:03:35.964Z,6.75
2017-03-23T05:04:36.433Z,6.72
2017-03-23T05:05:37.147Z,6.68
2017-03-23T05:06:36.899Z,6.68
2017-03-23T05:07:37.371Z,6.68
2017-03-23T05:08:37.838Z,6.78
2017-03-23T05:09:38.306Z,6.7
2017-03-23T05:10:38.755Z,6.8
2017-03-23T05:11:39.222Z,6.82
2017-03-23T05:12:39.679Z,6.78
2017-03-23T05:13:40.150Z,6.79
2017-03-23T05:14:40.615Z,6.78
2017-03-23T05:15:41.338Z,6.73
2017-03-23T05:16:41.092Z,6.8
2017-03-23T05:17:41.535Z,6.82
2017-03-23T05:18:41.987Z,6.75
2017-03-23T05:19:42.462Z,6.8
2017-03-23T05:20:42.885Z,6.83
2017-03-23T05:21:43.356Z,6.82
2017-03-23T05:22:43.818Z,6.8
2017-03-23T05:23:44.276Z,6.88
2017-03-23T05:24:44.747Z,6.78
2017-03-23T05:25:45.204Z,6.82
2017-03-23T05:26:45.683Z,6.75
2017-03-23T05:27:46.162Z,6.79
2017-03-23T05:28:46.616Z,6.83
2017-03-23T05:29:47.078Z,6.83
2017-03-23T05:30:47.556Z,6.8
2017-03-23T05:31:48.041Z,6.82
2017-03-23T05:32:48.474Z,6.8
2017-03-23T05:33:48.957Z,6.86
2017-03-23T05:34:49.434Z,6.85
2017-03-23T05:35:50.160Z,6.91
2017-03-23T05:36:49.924Z,6.88
2017-03-23T05:37:50.392Z,6.86
2017-03-23T05:38:50.845Z,6.88
2017-03-23T05:39:51.307Z,6.9
2017-03-23T05:40:51.767Z,6.88
2017-03-23T05:41:52.241Z,6.88
2017-03-23T05:42:52.773Z,6.94
2017-03-23T05:43:53.229Z,6.83
2017-03-23T05:44:53.688Z,6.85
2017-03-23T05:45:54.314Z,6.86
2017-03-23T05:46:54.180Z,6.93
2017-03-23T05:47:54.647Z,6.86
2017-03-23T05:48:55.097Z,6.94
2017-03-23T05:49:55.567Z,6.98
2017-03-23T05:50:56.047Z,6.95
2017-03-23T05:51:56.483Z,6.91
2017-03-23T05:52:56.920Z,7
2017-03-23T05:53:57.384Z,6.98
2017-03-23T05:54:57.831Z,6.9
2017-03-23T05:55:58.283Z,7.05
2017-03-23T05:56:58.710Z,7.03
2017-03-23T05:57:59.181Z,6.91
2017-03-23T05:58:59.634Z,7.03
2017-03-23T06:00:00.096Z,6.94
2017-03-23T06:01:00.581Z,7.09
2017-03-23T06:02:01.034Z,6.95
2017-03-23T06:03:01.487Z,6.91
2017-03-23T06:04:01.935Z,6.93
2017-03-23T06:05:02.412Z,6.97
2017-03-23T06:06:02.964Z,6.91
2017-03-23T06:07:02.868Z,6.94
2017-03-23T06:08:03.322Z,7.04
2017-03-23T06:09:03.776Z,7
2017-03-23T06:10:04.255Z,7.01
2017-03-23T06:11:05.013Z,6.86
2017-03-23T06:12:04.746Z,6.88
2017-03-23T06:13:05.197Z,6.94
2017-03-23T06:14:05.665Z,6.86
2017-03-23T06:15:06.118Z,6.86
2017-03-23T06:16:06.603Z,6.93
2017-03-23T06:17:07.073Z,6.9
2017-03-23T06:18:07.494Z,6.8
2017-03-23T06:19:07.967Z,6.68
2017-03-23T06:20:08.428Z,6.72
2017-03-23T06:21:08.999Z,6.72
2017-03-23T06:22:08.914Z,6.67
2017-03-23T06:23:09.358Z,6.65
2017-03-23T06:24:09.814Z,6.61
2017-03-23T06:25:10.286Z,6.54
2017-03-23T06:26:11.059Z,6.46
2017-03-23T06:27:10.777Z,6.46
2017-03-23T06:28:11.236Z,6.46
2017-03-23T06:29:11.682Z,6.42
2017-03-23T06:30:12.152Z,6.42
2017-03-23T06:31:12.616Z,6.36
2017-03-23T06:32:13.055Z,6.28
2017-03-23T06:33:13.503Z,6.31
2017-03-23T06:34:13.959Z,6.26
2017-03-23T06:35:14.416Z,6.28
2017-03-23T06:36:14.979Z,6.24
2017-03-23T06:37:14.897Z,6.24
2017-03-23T06:38:15.371Z,6.15
2017-03-23T06:39:15.846Z,6.2
2017-03-23T06:40:16.321Z,6.14
2017-03-23T06:41:16.918Z,6.13
2017-03-23T06:42:16.802Z,6.15
2017-03-23T06:43:17.230Z,6.07
2017-03-23T06:44:17.698Z,6.1
2017-03-23T06:45:18.173Z,6.05
2017-03-23T06:46:18.750Z,6.09
2017-03-23T06:47:18.645Z,6
2017-03-23T06:48:19.098Z,6.02
2017-03-23T06:49:19.544Z,6.06
2017-03-23T06:50:19.999Z,6.06
2017-03-23T06:51:20.476Z,6.07
2017-03-23T06:52:20.913Z,6.14
2017-03-23T06:53:21.348Z,6.05
2017-03-23T06:54:21.826Z,6.13
2017-03-23T06:55:22.289Z,6.02
2017-03-23T06:56:22.868Z,6.03
2017-03-23T06:57:22.753Z,5.87
2017-03-23T06:58:23.218Z,5.87
2017-03-23T06:59:23.645Z,5.87
2017-03-23T07:00:24.104Z,5.85
2017-03-23T07:01:24.556Z,5.85
2017-03-23T07:02:25.043Z,5.85
2017-03-23T07:03:25.469Z,5.78
2017-03-23T07:04:25.946Z,5.84
2017-03-23T07:05:26.438Z,5.77
2017-03-23T07:06:27.307Z,5.87
2017-03-23T07:07:26.920Z,5.81
2017-03-23T07:08:27.364Z,5.82
2017-03-23T07:09:27.827Z,5.87
2017-03-23T07:10:28.297Z,5.95
2017-03-23T07:11:28.755Z,5.89
2017-03-23T07:12:29.733Z,6.03
2017-03-23T07:13:29.768Z,5.96
2017-03-23T07:14:29.766Z,5.96
2017-03-23T07:15:29.822Z,5.87
2017-03-23T07:16:29.824Z,5.87
2017-03-23T07:17:29.876Z,5.95
2017-03-23T07:18:29.887Z,5.91
2017-03-23T07:19:29.910Z,6.06
2017-03-23T07:20:29.948Z,6.09
2017-03-23T07:21:29.960Z,6.06
2017-03-23T07:22:29.994Z,6.1
2017-03-23T07:23:30.033Z,6.14
2017-03-23T07:24:30.049Z,6.18
2017-03-23T07:25:30.068Z,6.09
2017-03-23T07:26:30.114Z,6.18
2017-03-23T07:27:30.149Z,6.15
2017-03-23T07:28:30.174Z,6.21
2017-03-23T07:29:30.198Z,6.17
2017-03-23T07:30:30.221Z,6.2
2017-03-23T07:31:30.262Z,6.15
2017-03-23T07:32:30.263Z,6.17
2017-03-23T07:33:30.325Z,6.2
2017-03-23T07:34:30.340Z,6.2
2017-03-23T07:35:30.366Z,6.2
2017-03-23T07:36:30.394Z,6.15
2017-03-23T07:37:30.421Z,6.2
2017-03-23T07:38:30.429Z,6.21
2017-03-23T07:39:30.470Z,6.26
2017-03-23T07:40:30.490Z,6.26
2017-03-23T07:41:30.522Z,6.2
2017-03-23T07:42:30.566Z,6.2
2017-03-23T07:43:30.582Z,6.15
2017-03-23T07:44:30.610Z,6.13
2017-03-23T07:45:30.635Z,6.09
2017-03-23T07:46:30.669Z,6.03
2017-03-23T07:47:30.694Z,6.06
2017-03-23T07:48:30.713Z,6.07
2017-03-23T07:49:30.738Z,6.09
2017-03-23T07:50:30.775Z,6.02
2017-03-23T07:51:30.787Z,6.05
2017-03-23T07:52:30.831Z,6.06
2017-03-23T07:53:30.868Z,6.05
2017-03-23T07:54:30.877Z,5.99
2017-03-23T07:55:30.915Z,6.05
2017-03-23T07:56:30.942Z,6.02
2017-03-23T07:57:31.077Z,6.1
2017-03-23T07:58:31.030Z,6.18
2017-03-23T07:59:31.031Z,6.2
2017-03-23T08:00:31.060Z,6.13
2017-03-23T08:01:31.061Z,6.14
2017-03-23T08:02:31.209Z,6.2
2017-03-23T08:03:31.125Z,6.2
2017-03-23T08:04:31.169Z,6.26
2017-03-23T08:05:31.168Z,6.31
2017-03-23T08:06:31.182Z,6.18
2017-03-23T08:07:31.375Z,6.34
2017-03-23T08:08:31.274Z,6.26
2017-03-23T08:09:31.311Z,6.26
2017-03-23T08:10:31.332Z,6.15
2017-03-23T08:11:31.339Z,6.25
2017-03-23T08:12:31.374Z,6.28
2017-03-23T08:13:31.390Z,6.28
2017-03-23T08:14:31.434Z,6.26
2017-03-23T08:15:31.470Z,6.2
2017-03-23T08:16:31.495Z,6.34
2017-03-23T08:17:31.507Z,6.43
2017-03-23T08:18:31.547Z,6.36
2017-03-23T08:19:31.585Z,6.34
2017-03-23T08:20:31.590Z,6.31
2017-03-23T08:21:31.638Z,6.33
2017-03-23T08:22:31.694Z,6.31
2017-03-23T08:23:31.690Z,6.28
2017-03-23T08:24:31.736Z,6.28
2017-03-23T08:25:31.740Z,6.29
2017-03-23T08:26:31.764Z,6.4
2017-03-23T08:27:31.809Z,6.4
2017-03-23T08:28:31.837Z,6.44
2017-03-23T08:29:31.864Z,6.49
2017-03-23T08:30:31.876Z,6.61
2017-03-23T08:31:31.913Z,6.54
2017-03-23T08:32:31.922Z,6.57
2017-03-23T08:33:31.977Z,6.6
2017-03-23T08:34:31.994Z,6.58
2017-03-23T08:35:32.022Z,6.7
2017-03-23T08:36:32.058Z,6.76
2017-03-23T08:37:32.052Z,6.91
2017-03-23T08:38:32.092Z,7.01
2017-03-23T08:39:32.136Z,7.04
2017-03-23T08:40:32.167Z,7.12
2017-03-23T08:41:32.176Z,7.05
2017-03-23T08:42:32.224Z,7.03
2017-03-23T08:43:32.259Z,7.05
2017-03-23T08:44:32.259Z,7.04
2017-03-23T08:45:32.304Z,6.95
2017-03-23T08:46:32.336Z,7.11
2017-03-23T08:47:32.379Z,7.01
2017-03-23T08:48:32.480Z,7.12
2017-03-23T08:49:32.424Z,7.15
2017-03-23T08:50:32.460Z,7.16
2017-03-23T08:51:32.475Z,7.15
2017-03-23T08:52:32.489Z,7.23
2017-03-23T08:53:32.637Z,7.21
2017-03-23T08:54:32.565Z,7.3
2017-03-23T08:55:32.567Z,7.29
2017-03-23T08:56:32.623Z,7.3
2017-03-23T08:57:32.649Z,7.34
2017-03-23T08:58:32.819Z,7.33
2017-03-23T08:59:32.713Z,7.3
2017-03-23T09:00:32.741Z,7.27
2017-03-23T09:01:32.773Z,7.29
2017-03-23T09:02:32.795Z,7.3
2017-03-23T09:03:32.821Z,7.3
2017-03-23T09:04:32.858Z,7.37
2017-03-23T09:05:32.932Z,7.34
2017-03-23T09:06:32.889Z,7.37
2017-03-23T09:07:32.931Z,7.34
2017-03-23T09:08:32.971Z,7.31
2017-03-23T09:09:32.986Z,7.3
2017-03-23T09:10:33.034Z,7.3
2017-03-23T09:11:33.050Z,7.19
2017-03-23T09:12:33.064Z,7.27
2017-03-23T09:13:33.097Z,7.22
2017-03-23T09:14:33.148Z,7.3
2017-03-23T09:15:33.162Z,7.27
2017-03-23T09:16:33.198Z,7.37
2017-03-23T09:17:33.225Z,7.37
2017-03-23T09:18:33.246Z,7.34
2017-03-23T09:19:33.285Z,7.41
2017-03-23T09:20:33.284Z,7.47
2017-03-23T09:21:33.331Z,7.55
2017-03-23T09:22:33.375Z,7.52
2017-03-23T09:23:33.385Z,7.58
2017-03-23T09:24:33.421Z,7.54
2017-03-23T09:25:33.459Z,7.49
2017-03-23T09:26:33.480Z,7.45
2017-03-23T09:27:33.470Z,7.41
2017-03-23T09:28:33.523Z,7.31
2017-03-23T09:29:33.558Z,7.27
2017-03-23T09:30:33.604Z,7.29
2017-03-23T09:31:33.633Z,7.23
2017-03-23T09:32:33.642Z,7.15
2017-03-23T09:33:33.668Z,7.21
2017-03-23T09:34:33.720Z,7.19
2017-03-23T09:35:33.739Z,7.15
2017-03-23T09:36:33.777Z,7.19
2017-03-23T09:37:33.803Z,7.26
2017-03-23T09:38:33.818Z,7.18
2017-03-23T09:39:33.960Z,7.18
2017-03-23T09:40:33.885Z,7.13
2017-03-23T09:41:33.903Z,7.13
2017-03-23T09:42:33.953Z,7.01
2017-03-23T09:43:33.982Z,7.05
2017-03-23T09:44:34.255Z,7.12
2017-03-23T09:45:34.021Z,7.12
2017-03-23T09:46:34.077Z,7.12
2017-03-23T09:47:34.080Z,7.03
2017-03-23T09:48:34.128Z,7.05
2017-03-23T09:49:34.243Z,7.05
2017-03-23T09:50:34.179Z,7.16
2017-03-23T09:51:34.207Z,7.13
2017-03-23T09:52:34.245Z,7.12
2017-03-23T09:53:34.262Z,7.01
2017-03-23T09:54:34.287Z,7.13
2017-03-23T09:55:34.310Z,7.11
2017-03-23T09:56:34.359Z,7.21
2017-03-23T09:57:34.381Z,7.23
2017-03-23T09:58:34.406Z,7.26
2017-03-23T09:59:34.434Z,7.31
2017-03-23T10:00:34.453Z,7.34
2017-03-23T10:01:34.482Z,7.29
2017-03-23T10:02:34.522Z,7.44
2017-03-23T10:03:34.555Z,7.45
2017-03-23T10:04:34.590Z,7.48
2017-03-23T10:05:34.608Z,7.58
2017-03-23T10:06:34.641Z,7.61
2017-03-23T10:07:34.670Z,7.67
2017-03-23T10:08:34.689Z,7.7
2017-03-23T10:09:34.727Z,7.77
2017-03-23T10:10:34.763Z,7.75
2017-03-23T10:11:34.788Z,7.73
2017-03-23T10:12:34.802Z,7.61
2017-03-23T10:13:34.824Z,7.7
2017-03-23T10:14:34.872Z,7.51
2017-03-23T10:15:34.882Z,7.55
2017-03-23T10:16:34.923Z,7.64
2017-03-23T10:17:34.956Z,7.67
2017-03-23T10:18:34.987Z,7.78
2017-03-23T10:19:34.999Z,7.73
2017-03-23T10:20:35.042Z,7.77
2017-03-23T10:21:35.072Z,7.82
2017-03-23T10:22:35.082Z,7.8
2017-03-23T10:23:35.126Z,7.77
2017-03-23T10:24:35.163Z,7.78
2017-03-23T10:25:35.555Z,7.74
2017-03-23T10:26:35.232Z,7.73
2017-03-23T10:27:35.249Z,7.73
2017-03-23T10:28:35.277Z,7.74
2017-03-23T10:29:35.308Z,7.77
2017-03-23T10:30:35.439Z,7.78
2017-03-23T10:31:35.369Z,7.78
2017-03-23T10:32:35.392Z,7.8
2017-03-23T10:33:35.427Z,7.78
2017-03-23T10:34:35.445Z,7.8
2017-03-23T10:35:35.583Z,7.83
2017-03-23T10:36:35.516Z,7.86
2017-03-23T10:37:35.549Z,7.8
2017-03-23T10:38:35.571Z,7.75
2017-03-23T10:39:35.746Z,7.77
2017-03-23T10:40:35.640Z,7.59
2017-03-23T10:41:35.638Z,7.63
2017-03-23T10:42:35.686Z,7.63
2017-03-23T10:43:35.700Z,7.7
2017-03-23T10:44:35.744Z,7.73
2017-03-23T10:45:35.783Z,7.73
2017-03-23T10:46:35.800Z,7.75
2017-03-23T10:47:35.832Z,7.74
2017-03-23T10:48:35.851Z,7.73
2017-03-23T10:49:35.890Z,7.75
2017-03-23T10:50:35.913Z,7.78
2017-03-23T10:51:35.955Z,7.85
2017-03-23T10:52:35.983Z,7.83
2017-03-23T10:53:35.991Z,7.82
2017-03-23T10:54:36.045Z,7.88
2017-03-23T10:55:36.054Z,8.03
2017-03-23T10:56:36.092Z,8.14
2017-03-23T10:57:36.133Z,8.29
2017-03-23T10:58:36.163Z,8.32
2017-03-23T10:59:36.191Z,8.43
2017-03-23T11:00:36.209Z,8.44
2017-03-23T11:01:36.240Z,8.47
2017-03-23T11:02:36.276Z,8.52
2017-03-23T11:03:36.302Z,8.58
2017-03-23T11:04:36.321Z,8.47
2017-03-23T11:05:36.584Z,8.42
2017-03-23T11:06:36.399Z,8.39
2017-03-23T11:07:36.403Z,8.4
2017-03-23T11:08:36.452Z,8.43
2017-03-23T11:09:36.484Z,8.36
2017-03-23T11:10:36.516Z,8.42
2017-03-23T11:11:36.557Z,8.47
2017-03-23T11:12:36.573Z,8.43
2017-03-23T11:13:36.601Z,8.47
2017-03-23T11:14:36.713Z,8.34
2017-03-23T11:15:36.663Z,8.28
2017-03-23T11:16:36.682Z,8.22
2017-03-23T11:17:36.713Z,8.26
2017-03-23T11:18:36.750Z,8.25
2017-03-23T11:19:37.028Z,8.25
2017-03-23T11:20:36.812Z,8.21
2017-03-23T11:21:36.837Z,8.14
2017-03-23T11:22:36.868Z,8.13
2017-03-23T11:23:36.889Z,7.99
2017-03-23T11:24:37.063Z,7.96
2017-03-23T11:25:36.959Z,7.95
2017-03-23T11:26:36.986Z,8.03
2017-03-23T11:27:37.013Z,7.88
2017-03-23T11:28:37.030Z,7.83
2017-03-23T11:29:37.070Z,7.83
2017-03-23T11:30:37.110Z,7.85
2017-03-23T11:31:37.134Z,7.83
2017-03-23T11:32:37.131Z,7.83
2017-03-23T11:33:37.188Z,7.74
2017-03-23T11:34:37.217Z,7.59
2017-03-23T11:35:37.250Z,7.61
2017-03-23T11:36:37.286Z,7.58
2017-03-23T11:37:37.306Z,7.61
2017-03-23T11:38:37.317Z,7.56
2017-03-23T11:39:37.364Z,7.54
2017-03-23T11:40:37.402Z,7.56
2017-03-23T11:41:37.412Z,7.58
2017-03-23T11:42:37.467Z,7.55
2017-03-23T11:43:37.480Z,7.49
2017-03-23T11:44:37.521Z,7.61
2017-03-23T11:45:37.532Z,7.52
2017-03-23T11:46:37.577Z,7.56
2017-03-23T11:47:37.602Z,7.68
2017-03-23T11:48:37.637Z,7.63
2017-03-23T11:49:37.665Z,7.7
2017-03-23T11:50:37.672Z,7.74
2017-03-23T11:51:37.724Z,7.77
2017-03-23T11:52:37.722Z,7.77
2017-03-23T11:53:37.834Z,7.8
2017-03-23T11:54:37.810Z,7.8
2017-03-23T11:55:37.842Z,7.77
2017-03-23T11:56:37.836Z,7.73
2017-03-23T11:57:37.904Z,7.74
2017-03-23T11:58:37.923Z,7.75
2017-03-23T11:59:37.931Z,7.75
2017-03-23T12:00:37.971Z,7.74
2017-03-23T12:01:38.017Z,7.75
2017-03-23T12:02:38.036Z,7.83
2017-03-23T12:03:38.079Z,7.89
2017-03-23T12:04:38.101Z,7.93
2017-03-23T12:05:38.135Z,7.93
2017-03-23T12:06:38.150Z,8.01
2017-03-23T12:07:38.166Z,7.98
2017-03-23T12:08:38.213Z,8.07
2017-03-23T12:09:38.245Z,7.99
2017-03-23T12:10:38.358Z,8.11
2017-03-23T12:11:38.303Z,8.11
2017-03-23T12:12:38.330Z,8.25
2017-03-23T12:13:38.332Z,8.25
2017-03-23T12:14:38.407Z,8.35
2017-03-23T12:15:38.746Z,8.44
2017-03-23T12:16:38.452Z,8.47
2017-03-23T12:17:38.475Z,8.43
2017-03-23T12:18:38.513Z,8.44
2017-03-23T12:19:38.537Z,8.44
2017-03-23T12:20:38.563Z,8.5
2017-03-23T12:21:38.600Z,8.49
2017-03-23T12:22:38.600Z,8.57
2017-03-23T12:23:38.650Z,8.58
2017-03-23T12:24:38.680Z,8.64
2017-03-23T12:25:38.720Z,8.69
2017-03-23T12:26:38.738Z,8.62
2017-03-23T12:27:38.780Z,8.74
2017-03-23T12:28:38.805Z,8.6
2017-03-23T12:29:38.817Z,8.57
2017-03-23T12:30:38.871Z,8.54
2017-03-23T12:31:38.892Z,8.65
2017-03-23T12:32:38.933Z,8.76
2017-03-23T12:33:38.954Z,8.71
2017-03-23T12:34:38.989Z,8.76
2017-03-23T12:35:39.008Z,8.74
2017-03-23T12:36:39.053Z,8.83
2017-03-23T12:37:39.073Z,8.98
2017-03-23T12:38:39.102Z,9.17
2017-03-23T12:39:39.137Z,9.23
2017-03-23T12:40:39.165Z,9.32
2017-03-23T12:41:39.200Z,9.38
2017-03-23T12:42:39.207Z,9.37
2017-03-23T12:43:39.273Z,9.37
2017-03-23T12:44:39.299Z,9.21
2017-03-23T12:45:39.344Z,9.23
2017-03-23T12:46:39.350Z,9.26
2017-03-23T12:47:39.371Z,9.19
2017-03-23T12:48:39.418Z,9.11
2017-03-23T12:49:39.416Z,9.24
2017-03-23T12:50:39.432Z,9.19
2017-03-23T12:51:39.500Z,9.19
2017-03-23T12:52:39.499Z,9.21
2017-03-23T12:53:39.562Z,9.12
2017-03-23T12:54:39.583Z,9.11
2017-03-23T12:55:39.598Z,9.23
2017-03-23T12:56:39.802Z,9.38
2017-03-23T12:57:39.672Z,9.5
2017-03-23T12:58:39.710Z,9.38
2017-03-23T12:59:39.735Z,9.41
2017-03-23T13:00:39.767Z,9.27
2017-03-23T13:01:39.954Z,9.26
2017-03-23T13:02:39.818Z,9.38
2017-03-23T13:03:39.832Z,9.35
2017-03-23T13:04:39.894Z,9.27
2017-03-23T13:05:39.899Z,9.26
2017-03-23T13:06:40.103Z,9.37
2017-03-23T13:07:39.986Z,9.38
2017-03-23T13:08:40.011Z,9.37
2017-03-23T13:09:40.020Z,9.24
2017-03-23T13:10:40.060Z,9.19
2017-03-23T13:11:40.109Z,9.08
2017-03-23T13:12:40.118Z,9.05
2017-03-23T13:13:40.159Z,9.12
2017-03-23T13:14:40.183Z,9.12
2017-03-23T13:15:40.198Z,9.11
2017-03-23T13:16:40.261Z,9.19
2017-03-23T13:17:40.282Z,9.12
2017-03-23T13:18:40.319Z,9.29
2017-03-23T13:19:40.340Z,9.44
2017-03-23T13:20:40.372Z,9.59
2017-03-23T13:21:40.402Z,9.62
2017-03-23T13:22:40.432Z,9.77
2017-03-23T13:23:40.461Z,9.75
2017-03-23T13:24:40.493Z,9.77
2017-03-23T13:25:40.505Z,9.82
2017-03-23T13:26:40.544Z,9.9
2017-03-23T13:27:40.647Z,9.85
2017-03-23T13:28:40.607Z,9.82
2017-03-23T13:29:40.644Z,9.9
2017-03-23T13:30:40.679Z,9.9
2017-03-23T13:31:40.716Z,9.82
2017-03-23T13:32:40.726Z,9.93
2017-03-23T13:33:40.815Z,10.13
2017-03-23T13:34:40.790Z,10.07
2017-03-23T13:35:40.849Z,10.14
2017-03-23T13:36:40.866Z,10.15
2017-03-23T13:37:40.871Z,10.21
2017-03-23T13:38:40.916Z,10.25
2017-03-23T13:39:40.942Z,10.28
2017-03-23T13:40:40.972Z,10.26
2017-03-23T13:41:41.012Z,10.14
2017-03-23T13:42:41.191Z,10.13
2017-03-23T13:43:41.071Z,9.9
2017-03-23T13:44:41.098Z,9.89
2017-03-23T13:45:41.086Z,9.85
2017-03-23T13:46:41.136Z,9.77
2017-03-23T13:47:41.347Z,9.64
2017-03-23T13:48:41.221Z,9.74
2017-03-23T13:49:41.244Z,9.74
2017-03-23T13:50:41.258Z,9.7
2017-03-23T13:51:41.286Z,9.59
2017-03-23T13:52:41.490Z,9.6
2017-03-23T13:53:41.374Z,9.52
2017-03-23T13:54:41.394Z,9.44
2017-03-23T13:55:41.427Z,9.34
2017-03-23T13:56:41.453Z,9.16
2017-03-23T13:57:41.471Z,9.16
2017-03-23T13:58:41.524Z,9
2017-03-23T13:59:41.552Z,8.89
2017-03-23T14:00:41.582Z,8.87
2017-03-23T14:01:41.606Z,8.86
2017-03-23T14:02:41.611Z,8.86
2017-03-23T14:03:41.670Z,8.8
2017-03-23T14:04:41.693Z,8.89
2017-03-23T14:05:41.733Z,8.79